ADDS METAR Data INFO
IDs: Format: Raw Decoded Include TAF

Data at: 1844 UTC 17 Oct 2017

KDDC 171752Z AUTO 20007KT 10SM CLR 23/04 A3014 RMK AO2 SLP189 T02280044 10228 20056 58011
KDDC 171652Z AUTO 20006KT 10SM CLR 19/04 A3016 RMK AO2 SLP198 T01940044
KDDC 171552Z AUTO 20005KT 10SM CLR 16/04 A3017 RMK AO2 SLP204 T01560044
KDDC 171452Z AUTO 21010KT 10SM CLR 12/03 A3017 RMK AO2 SLP209 T01170033 53010
KDDC 171352Z AUTO 22011KT 10SM CLR 08/02 A3016 RMK AO2 SLP209 T00830022
KDDC 171252Z AUTO 22011KT 10SM CLR 07/01 A3015 RMK AO2 SLP205 T00670011
KDDC 171152Z AUTO 21010KT 10SM CLR 06/02 A3014 RMK AO2 SLP199 T00560017 10106 20056 56003
KDDC 171052Z AUTO 20008KT 10SM CLR 06/01 A3014 RMK AO2 SLP197 T00560011
KDDC 170952Z AUTO 20010KT 10SM CLR 08/02 A3014 RMK AO2 SLP193 T00780017
KDDC 170852Z AUTO 19010KT 10SM CLR 08/02 A3015 RMK AO2 SLP196 T00780017 56009
KDDC 170752Z AUTO 19012KT 10SM CLR 09/02 A3016 RMK AO2 SLP200 T00890017
KDDC 170652Z AUTO 19010KT 10SM CLR 09/02 A3017 RMK AO2 SLP200 T00890017
KDDC 170552Z AUTO 19013KT 10SM CLR 11/02 A3018 RMK AO2 SLP205 T01060017 10189 20106 402330022 58003
KDDC 170452Z AUTO 19014KT 10SM CLR 12/01 A3019 RMK AO2 SLP208 T01220011
KDDC 170352Z AUTO 19016KT 10SM CLR 14/01 A3019 RMK AO2 SLP212 T01390011
KDDC 170252Z AUTO 18013KT 10SM CLR 14/01 A3019 RMK AO2 SLP212 T01390011 50002
KDDC 170152Z AUTO 17014KT 10SM CLR 14/01 A3019 RMK AO2 SLP217 T01390006
KDDC 170052Z AUTO 17009KT 10SM CLR 14/00 A3019 RMK AO2 SLP222 T01440000
KDDC 162352Z AUTO 18010KT 10SM CLR 19/M01 A3018 RMK AO2 SLP216 T01891011 10233 20189 56012
KDDC 162252Z AUTO 19017G23KT 10SM CLR 22/M01 A3019 RMK AO2 PK WND 18026/2235 SLP216 T02171006
KDDC 162152Z AUTO 19018G26KT 10SM CLR 23/M02 A3020 RMK AO2 PK WND 18028/2102 SLP219 T02281022
KDDC 162052Z AUTO 19018G25KT 10SM CLR 23/M03 A3022 RMK AO2 PK WND 21027/2012 SLP223 T02281028 56036
KDDC 161952Z AUTO 19017KT 10SM CLR 22/M02 A3025 RMK AO2 PK WND 20027/1937 SLP236 T02221022
KDDC 161852Z AUTO 19023G28KT 10SM CLR 23/M03 A3029 RMK AO2 PK WND 19030/1804 SLP247 T02281028
KDDC 161752Z AUTO 20019KT 10SM CLR 21/M02 A3034 RMK AO2 PK WND 20026/1732 SLP264 60000 T02111022 10211 20022 58020
KDDC 161652Z AUTO 20016KT 10SM CLR 19/00 A3037 RMK AO2 RAE09 SLP275 P0000 T01890000
KDDC 161552Z AUTO 22016KT 10SM -RA CLR 16/00 A3039 RMK AO2 RAB48 SLP283 P0000 T01610000
KDDC 161452Z AUTO 21012KT 7SM CLR 13/01 A3040 RMK AO2 SLP291 T01330006 53002
KDDC 161352Z AUTO 21008KT 7SM CLR 09/01 A3040 RMK AO2 SLP294 T00890006
KDDC 161252Z AUTO 21005KT 7SM CLR 03/M01 A3039 RMK AO2 SLP299 T00331011
KDDC 161152Z AUTO 20007KT 8SM CLR 03/M01 A3039 RMK AO2 SLP293 T00331011 10061 20028 56003
KDDC 161052Z AUTO 20008KT 8SM CLR 03/M02 A3040 RMK AO2 SLP291 T00281017
KDDC 160952Z AUTO 20009KT 9SM CLR 04/M01 A3040 RMK AO2 SLP291 T00391011
KDDC 160852Z AUTO 20008KT 9SM CLR 05/M02 A3040 RMK AO2 SLP291 T00501017 58005
KDDC 160752Z AUTO 20007KT 8SM CLR 04/M01 A3042 RMK AO2 SLP296 T00441011
KDDC 160652Z AUTO 20007KT 8SM CLR 06/M01 A3042 RMK AO2 SLP297 T00561011